Kassel, Germany

02:07 PM CEST on Juli 26, 2016 (GMT +0200)
Calden | | Change Station

Elev 909 ft 51.41 °N, 9.38 °E | Updated 17 minutes ago

Scattered Clouds
Växlande molnighet
75 °F
Feels Like 75 °F
N
5
Vind Växlande Vind from Växlande

Idag
High -- | Low -- °F
--% Chance of Precip.
Yesterday
High -- | Low -- °F
Precip. -- tum
Lufttryck 30.12 tum
Sikt 6.2 miles
Molnigt Växlande molnighet 3500 ft
Daggpunkt 59 °F
Luftfuktighet 57%
Rainfall 0.00 tum
Snow Depth Not available.
5:38 AM 9:18 PM
Tredje kvarteret, 55% visible
METAR EDVK 261150Z VRB04KT 9999 SCT035 24/15 Q1020
Lufttryck 30.12 tum
Sikt 6.2 miles
Molnigt Växlande molnighet 3500 ft
Daggpunkt 59 °F
Luftfuktighet 57%
Rainfall 0.00 tum
Snow Depth Not available.
5:38 AM 9:18 PM
Tredje kvarteret, 55% visible
METAR EDVK 261150Z VRB04KT 9999 SCT035 24/15 Q1020

10-Day Weather Forecast

×

Almanac

Astronomi

Jul. 26, 2016 Rise Set
Actual Time
Civil Twilight
Nautical Twilight
Astronomical Twilight
Månen
Length Of Visible Light
Dagens längd
Tomorrow will be .
, % of the Moon is Illuminated

Today's Extremes

Country Highs Country Lows

Community

WunderPhotos

Upload Photos

1,927,580 photos uploaded!

WunderBlog® & News

Nearby

Air Quality

  Air Quality AQ Index Pollutant
Not available.

Snödjup

Station Depth Elevation

Earthquake Activity

Stad Distance Mag. Time & Date
Minimum magnitude displayed is 2.5.

Coastal Water Temperatures

Plats Temperatur

Stations

Nearby Weather Stations

Station Location Temp Vindavkylning Daggpunkt Luftfuktighet Vind Precip. Elev Uppdaterad Type